Time;durP1;ratioP1;P1;durP2;ratioP2;P2;SDS_P1;SDS_P2;PMS_P1;PMS_P2;Temp;Humidity;BMP_temperature;BMP_pressure;BME280_temperature;BME280_humidity;BME280_pressure;Samples;Min_cycle;Max_cycle;Signal;HPM_P1;HPM_P2
2022/04/20 00:00:05;;;;;;;6.70;2.40;;;;;;;10.41;94.67;101850.22;5109965;28;20044;-28
2022/04/20 00:02:37;;;;;;;5.45;2.47;;;;;;;10.38;94.04;101842.41;5110778;28;20411;-26
2022/04/20 00:05:06;;;;;;;4.78;2.30;;;;;;;10.35;93.09;101849.38;5110638;28;20405;-27
2022/04/20 00:07:35;;;;;;;5.60;2.40;;;;;;;10.34;92.03;101850.50;5109688;28;20123;-28
2022/04/20 00:10:03;;;;;;;4.63;2.40;;;;;;;10.34;91.03;101844.91;5110231;28;20046;-27
2022/04/20 00:12:31;;;;;;;4.47;2.15;;;;;;;10.32;89.95;101842.41;5110384;28;20048;-27
2022/04/20 00:14:59;;;;;;;5.03;2.20;;;;;;;10.33;89.22;101851.59;5110384;27;20051;-30
2022/04/20 00:17:26;;;;;;;4.32;2.08;;;;;;;10.32;88.46;101844.34;5112337;28;20052;-27
2022/04/20 00:19:54;;;;;;;4.45;2.20;;;;;;;10.32;87.46;101839.59;5112491;28;20457;-28
2022/04/20 00:22:23;;;;;;;3.95;2.17;;;;;;;10.32;86.11;101834.03;5111801;28;20058;-27
2022/04/20 00:24:51;;;;;;;4.03;2.15;;;;;;;10.33;85.12;101846.03;5111459;28;20055;-27
2022/04/20 00:27:19;;;;;;;3.47;1.98;;;;;;;10.32;84.21;101838.75;5111473;28;20052;-27
2022/04/20 00:29:47;;;;;;;5.03;2.50;;;;;;;10.33;83.43;101844.06;5112012;28;20050;-31
2022/04/20 00:32:14;;;;;;;4.82;2.13;;;;;;;10.34;82.84;101844.91;5112252;28;20036;-28
2022/04/20 00:34:42;;;;;;;4.13;2.50;;;;;;;10.32;82.27;101842.41;5111428;28;20048;-29
2022/04/20 00:37:10;;;;;;;6.85;2.78;;;;;;;10.30;82.01;101846.56;5111951;28;20043;-29
2022/04/20 00:39:39;;;;;;;5.57;2.10;;;;;;;10.29;81.24;101850.47;5111907;28;20187;-33
2022/04/20 00:42:07;;;;;;;4.10;2.15;;;;;;;10.26;80.55;101849.06;5111539;28;20058;-32
2022/04/20 00:44:35;;;;;;;3.45;1.98;;;;;;;10.27;80.24;101850.72;5110845;28;20053;-30
2022/04/20 00:47:04;;;;;;;3.38;1.83;;;;;;;10.27;80.26;101850.72;5111865;28;20046;-29
2022/04/20 00:49:35;;;;;;;3.75;2.00;;;;;;;10.27;79.97;101853.53;5110952;28;20039;-27
2022/04/20 00:52:05;;;;;;;6.05;2.53;;;;;;;10.24;79.75;101851.28;5110851;28;20051;-29
2022/04/20 00:54:34;;;;;;;4.80;2.22;;;;;;;10.22;79.52;101850.72;5110779;28;20052;-30
2022/04/20 00:57:03;;;;;;;4.15;2.03;;;;;;;10.21;79.42;101848.19;5109635;28;20039;-28
2022/04/20 00:59:35;;;;;;;5.05;2.50;;;;;;;10.19;79.04;101851.25;5110409;28;20058;-27
2022/04/20 01:02:04;;;;;;;4.50;2.45;;;;;;;10.19;78.87;101850.44;5110395;28;20413;-27
2022/04/20 01:04:33;;;;;;;4.97;2.00;;;;;;;10.16;78.80;101853.72;5109518;28;20126;-27
2022/04/20 01:07:40;;;;;;;4.22;2.40;;;;;;;10.12;78.79;101847.03;5104248;28;20055;-28
2022/04/20 01:10:17;;;;;;;4.82;2.38;;;;;;;10.09;79.08;101847.56;5109483;28;20047;-28
2022/04/20 01:13:12;;;;;;;4.93;2.60;;;;;;;10.07;78.82;101846.97;5087471;28;20055;-29
2022/04/20 01:15:51;;;;;;;4.07;2.40;;;;;;;10.03;79.05;101836.38;5111740;28;20138;-28
2022/04/20 01:18:43;;;;;;;3.45;2.10;;;;;;;9.99;79.37;101842.78;5109142;28;20054;-28
2022/04/20 01:21:47;;;;;;;8.20;3.00;;;;;;;9.93;79.75;101838.28;5028624;28;20064;-27
2022/04/20 01:24:34;;;;;;;5.15;2.72;;;;;;;9.90;79.87;101847.19;5104811;28;20191;-28
2022/04/20 01:27:25;;;;;;;4.90;2.60;;;;;;;9.85;79.98;101841.56;5103110;28;20097;-28
2022/04/20 01:30:28;;;;;;;4.35;2.65;;;;;;;9.80;80.48;101847.94;5090499;28;20043;-27
2022/04/20 01:33:11;;;;;;;5.93;3.20;;;;;;;9.75;80.70;101839.59;5110062;28;20496;-27
2022/04/20 01:35:41;;;;;;;4.90;2.90;;;;;;;9.74;81.25;101848.22;5111402;28;20459;-28
2022/04/20 01:38:11;;;;;;;4.88;2.72;;;;;;;9.70;81.17;101850.69;5113420;28;20051;-27
2022/04/20 01:40:38;;;;;;;5.68;3.20;;;;;;;9.66;81.69;101844.81;5113800;28;20067;-28
2022/04/20 01:43:06;;;;;;;6.38;2.80;;;;;;;9.63;81.35;101850.91;5114339;28;20535;-27
2022/04/20 01:45:36;;;;;;;6.47;3.05;;;;;;;9.59;81.33;101848.97;5112424;28;20043;-28
2022/04/20 01:48:33;;;;;;;5.22;3.00;;;;;;;9.53;81.66;101845.28;5067425;28;20134;-29
2022/04/20 01:51:50;;;;;;;5.93;3.08;;;;;;;9.48;81.65;101848.03;5031397;28;20052;-28
2022/04/20 01:54:52;;;;;;;6.07;3.28;;;;;;;9.43;81.41;101847.16;5147969;27;20247;-29
2022/04/20 01:57:36;;;;;;;6.70;3.15;;;;;;;9.41;81.80;101854.94;5113901;28;20063;-27
2022/04/20 02:00:14;;;;;;;6.00;3.15;;;;;;;9.37;81.97;101853.81;5107897;28;20047;-28
2022/04/20 02:02:46;;;;;;;4.60;2.80;;;;;;;9.31;82.33;101850.97;5113847;28;20058;-27
2022/04/20 02:05:23;;;;;;;5.47;3.13;;;;;;;9.29;82.27;101847.63;5115383;28;20121;-28
2022/04/20 02:08:06;;;;;;;5.13;3.05;;;;;;;9.25;82.51;101846.47;5113899;28;20052;-27
2022/04/20 02:10:53;;;;;;;4.22;2.88;;;;;;;9.22;83.15;101852.56;5115206;28;20054;-30
2022/04/20 02:13:21;;;;;;;6.50;3.38;;;;;;;9.18;83.40;101848.66;5111189;28;20051;-27
2022/04/20 02:15:51;;;;;;;5.07;2.80;;;;;;;9.15;83.76;101846.41;5113615;28;20514;-27
2022/04/20 02:18:37;;;;;;;4.35;2.50;;;;;;;9.13;83.93;101847.78;5113926;28;20070;-27
2022/04/20 02:21:31;;;;;;;5.25;3.00;;;;;;;9.08;84.20;101848.56;5109904;28;20525;-28
2022/04/20 02:23:59;;;;;;;5.57;3.53;;;;;;;9.05;84.11;101843.50;5114654;28;20054;-28
2022/04/20 02:26:28;;;;;;;5.15;3.10;;;;;;;9.02;84.79;101849.59;5113414;28;20054;-29
2022/04/20 02:28:56;;;;;;;6.38;3.35;;;;;;;8.98;84.66;101852.09;5112337;28;20047;-30
2022/04/20 02:31:23;;;;;;;5.22;3.28;;;;;;;8.96;84.94;101851.53;5113279;28;20067;-28
2022/04/20 02:33:51;;;;;;;5.97;3.03;;;;;;;8.92;84.91;101843.97;5112449;28;20063;-33
2022/04/20 02:36:19;;;;;;;5.95;3.08;;;;;;;8.88;85.51;101849.22;5105936;28;20055;-32
2022/04/20 02:38:47;;;;;;;4.68;2.78;;;;;;;8.85;85.88;101846.09;5114307;28;20051;-31
2022/04/20 02:41:16;;;;;;;4.85;3.40;;;;;;;8.81;85.67;101843.00;5113359;28;20039;-30
2022/04/20 02:43:45;;;;;;;7.05;3.42;;;;;;;8.78;85.87;101846.34;5114192;28;20056;-29
2022/04/20 02:46:13;;;;;;;5.03;3.28;;;;;;;8.74;86.11;101849.91;5112750;28;20051;-29
2022/04/20 02:48:41;;;;;;;4.80;2.88;;;;;;;8.70;86.54;101852.38;5111841;28;20413;-28
2022/04/20 02:51:09;;;;;;;5.70;3.75;;;;;;;8.68;86.92;101846.22;5114014;28;20138;-29
2022/04/20 02:53:37;;;;;;;6.80;3.53;;;;;;;8.65;86.92;101857.88;5112743;28;20243;-30
2022/04/20 02:56:05;;;;;;;5.40;2.92;;;;;;;8.62;86.60;101848.09;5113255;28;20040;-27
2022/04/20 02:58:33;;;;;;;5.05;3.40;;;;;;;8.60;87.35;101852.25;5101054;28;20068;-28
2022/04/20 03:01:03;;;;;;;6.07;3.90;;;;;;;8.55;87.49;101853.06;5114011;28;20134;-28
2022/04/20 03:03:35;;;;;;;4.88;3.40;;;;;;;8.52;87.89;101852.72;5111655;28;20059;-27
2022/04/20 03:06:14;;;;;;;5.90;3.17;;;;;;;8.50;88.32;101861.34;5112701;28;20039;-29
2022/04/20 03:08:42;;;;;;;6.80;3.53;;;;;;;8.48;88.31;101855.19;5112309;28;20094;-27
2022/04/20 03:11:13;;;;;;;4.37;2.57;;;;;;;8.45;88.63;101849.31;5100810;28;20401;-29
2022/04/20 03:13:44;;;;;;;6.25;3.88;;;;;;;8.43;88.61;101854.28;5112415;28;20050;-28
2022/04/20 03:16:16;;;;;;;5.55;3.20;;;;;;;8.40;88.53;101846.47;5112035;28;20499;-30
2022/04/20 03:18:44;;;;;;;5.07;3.17;;;;;;;8.37;88.80;101845.06;5113597;28;20104;-28
2022/04/20 03:21:19;;;;;;;4.35;2.65;;;;;;;8.34;89.02;101845.59;5113629;28;20039;-28
2022/04/20 03:23:50;;;;;;;4.78;2.80;;;;;;;8.31;89.27;101848.84;5111815;28;20388;-27
2022/04/20 03:26:26;;;;;;;6.65;3.38;;;;;;;8.27;89.74;101851.31;5112502;28;20056;-28
2022/04/20 03:29:14;;;;;;;6.20;3.63;;;;;;;8.24;90.21;101842.63;5112490;28;20586;-28
2022/04/20 03:31:43;;;;;;;5.47;4.00;;;;;;;8.22;90.32;101845.66;5109666;28;20524;-27
2022/04/20 03:34:13;;;;;;;6.80;3.70;;;;;;;8.19;90.50;101848.97;5110885;28;20047;-28
2022/04/20 03:36:40;;;;;;;7.00;3.72;;;;;;;8.16;91.05;101848.66;5112114;28;20062;-28
2022/04/20 03:39:08;;;;;;;5.32;3.60;;;;;;;8.14;90.88;101859.19;5111059;28;20416;-27
2022/04/20 03:41:36;;;;;;;6.32;4.03;;;;;;;8.11;91.03;101856.94;5112098;28;20054;-28
2022/04/20 03:44:05;;;;;;;5.57;3.80;;;;;;;8.09;91.32;101854.41;5112281;28;20048;-27
2022/04/20 03:46:33;;;;;;;4.72;3.30;;;;;;;8.05;91.13;101849.63;5112830;28;20130;-29
2022/04/20 03:49:02;;;;;;;7.05;4.13;;;;;;;8.03;91.55;101854.59;5113083;28;20044;-28
2022/04/20 03:51:30;;;;;;;5.38;3.65;;;;;;;8.00;91.92;101849.53;5112190;28;20059;-27
2022/04/20 03:54:00;;;;;;;7.93;4.05;;;;;;;7.97;92.10;101853.72;5111615;28;20047;-27
2022/04/20 03:57:03;;;;;;;5.55;3.78;;;;;;;7.93;92.45;101852.53;5111640;28;20058;-31
2022/04/20 03:59:20;;;;;;;5.30;3.28;;;;;;;7.89;92.97;101856.91;5105151;28;20047;-27
2022/04/20 04:01:49;;;;;;;6.05;3.88;;;;;;;7.86;92.93;101855.50;5112756;28;20052;-29
2022/04/20 04:04:18;;;;;;;5.32;3.15;;;;;;;7.85;93.13;101864.94;5111535;28;20071;-29
2022/04/20 04:06:47;;;;;;;6.80;3.72;;;;;;;7.83;93.21;101858.78;5110836;28;20476;-28
2022/04/20 04:09:17;;;;;;;6.75;3.63;;;;;;;7.80;93.48;101862.06;5111375;28;20055;-27
2022/04/20 04:11:45;;;;;;;5.72;3.78;;;;;;;7.79;93.81;101863.19;5112656;28;20047;-26
2022/04/20 04:14:13;;;;;;;6.13;3.70;;;;;;;7.77;93.54;101862.59;5110521;28;20131;-28
2022/04/20 04:16:41;;;;;;;8.05;4.40;;;;;;;7.74;93.89;101863.13;5111088;28;20487;-25
2022/04/20 04:19:10;;;;;;;5.38;3.75;;;;;;;7.73;94.17;101861.44;5112193;28;20044;-28
2022/04/20 04:21:40;;;;;;;6.35;4.05;;;;;;;7.70;94.16;101866.66;5110819;28;20081;-27
2022/04/20 04:24:34;;;;;;;6.20;3.95;;;;;;;7.68;94.59;101869.69;5110793;28;20130;-27
2022/04/20 04:26:58;;;;;;;9.15;6.07;;;;;;;7.64;94.92;101874.06;5109749;28;20081;-32
2022/04/20 04:29:27;;;;;;;7.30;4.00;;;;;;;7.63;94.73;101869.59;5110577;28;20047;-33
2022/04/20 04:31:55;;;;;;;6.47;4.13;;;;;;;7.61;94.93;101878.19;5111727;28;20039;-26
2022/04/20 04:34:23;;;;;;;6.68;3.65;;;;;;;7.58;95.23;101875.94;5110113;28;20055;-31
2022/04/20 04:36:58;;;;;;;5.43;3.55;;;;;;;7.57;95.01;101879.81;5100643;28;20490;-28
2022/04/20 04:39:29;;;;;;;6.15;3.70;;;;;;;7.54;95.37;101880.31;5110372;28;20055;-28
2022/04/20 04:42:00;;;;;;;6.20;4.03;;;;;;;7.53;95.15;101880.56;5109863;28;20540;-26
2022/04/20 04:44:29;;;;;;;6.45;3.63;;;;;;;7.51;95.39;101889.16;5110413;28;20052;-27
2022/04/20 04:49:52;;;;;;;7.72;4.13;;;;;;;7.46;95.43;101891.84;5102930;28;20043;-27
2022/04/20 04:52:21;;;;;;;9.32;4.57;;;;;;;7.45;95.82;101892.94;5111601;28;20040;-27
2022/04/20 04:54:57;;;;;;;6.72;4.28;;;;;;;7.44;95.92;101902.34;5109717;28;20068;-26
2022/04/20 04:57:26;;;;;;;5.05;3.35;;;;;;;7.44;96.03;101901.50;5110061;28;20444;-27
2022/04/20 04:59:54;;;;;;;6.95;4.07;;;;;;;7.42;96.21;101901.75;5112030;28;20389;-27
2022/04/20 05:02:24;;;;;;;5.15;3.28;;;;;;;7.43;95.93;101899.84;5109770;28;20048;-30
2022/04/20 05:04:53;;;;;;;4.95;3.53;;;;;;;7.42;96.52;101901.75;5110216;28;20044;-27
2022/04/20 05:07:23;;;;;;;6.55;3.30;;;;;;;7.43;96.08;101897.06;5110190;28;20081;-26
2022/04/20 05:09:58;;;;;;;5.13;3.25;;;;;;;7.40;96.35;101903.09;5108552;28;20047;-26
2022/04/20 05:12:26;;;;;;;6.88;3.47;;;;;;;7.41;96.47;101899.25;5108798;28;20044;-28
2022/04/20 05:14:54;;;;;;;6.45;3.67;;;;;;;7.42;96.82;101907.31;5111815;28;20088;-26
2022/04/20 05:17:22;;;;;;;5.93;3.08;;;;;;;7.43;96.50;101911.78;5109189;28;20047;-27
2022/04/20 05:19:50;;;;;;;4.47;2.90;;;;;;;7.45;96.38;101911.53;5110078;28;20055;-28
2022/04/20 05:22:25;;;;;;;6.88;3.03;;;;;;;7.46;96.55;101913.22;5109699;28;20047;-27
2022/04/20 05:24:54;;;;;;;5.35;3.63;;;;;;;7.46;96.68;101913.22;5109743;28;20105;-28
2022/04/20 05:27:22;;;;;;;5.30;3.33;;;;;;;7.47;97.16;101912.13;5110009;28;20047;-27
2022/04/20 05:30:05;;;;;;;8.02;4.07;;;;;;;7.49;96.91;101909.94;5109422;28;20048;-29
2022/04/20 05:32:33;;;;;;;4.15;2.63;;;;;;;7.51;97.07;101913.31;5109826;28;20446;-29
2022/04/20 05:35:05;;;;;;;5.50;3.25;;;;;;;7.53;97.55;101916.69;5108167;28;20051;-26
2022/04/20 05:43:11;;;;;;;8.02;4.40;;;;;;;7.63;98.21;101914.03;5108309;28;20101;-29
2022/04/20 05:45:39;;;;;;;6.45;4.22;;;;;;;7.68;98.68;101919.69;5108994;28;20568;-27
2022/04/20 05:48:20;;;;;;;6.68;3.67;;;;;;;7.72;98.61;101925.56;5110093;28;20047;-27
2022/04/20 05:50:48;;;;;;;7.78;4.25;;;;;;;7.77;98.65;101925.66;5110225;28;20055;-28
2022/04/20 05:53:20;;;;;;;7.00;3.95;;;;;;;7.81;98.75;101922.09;5109585;28;20555;-29
2022/04/20 05:55:49;;;;;;;6.97;3.90;;;;;;;7.87;98.66;101923.03;5108254;28;20048;-31
2022/04/20 05:58:17;;;;;;;6.03;4.07;;;;;;;7.91;98.37;101922.25;5110450;28;20048;-27
2022/04/20 06:00:46;;;;;;;6.60;4.13;;;;;;;7.94;98.47;101924.53;5109624;28;20047;-29
2022/04/20 06:03:33;;;;;;;6.50;4.25;;;;;;;8.00;98.26;101927.38;5111407;28;20058;-28
2022/04/20 06:06:08;;;;;;;7.18;4.55;;;;;;;8.07;97.97;101939.16;5109118;28;20051;-27
2022/04/20 06:08:50;;;;;;;7.03;3.63;;;;;;;8.13;97.63;101932.59;5109689;28;20134;-27
2022/04/20 06:11:38;;;;;;;8.80;4.20;;;;;;;8.19;97.89;101928.78;5110129;28;20438;-28
2022/04/20 06:14:07;;;;;;;6.30;3.92;;;;;;;8.25;97.68;101931.34;5109036;28;20051;-26
2022/04/20 06:16:50;;;;;;;6.93;3.67;;;;;;;8.32;97.10;101930.34;5109511;28;20071;-28
2022/04/20 06:19:27;;;;;;;6.07;3.97;;;;;;;8.39;96.90;101926.31;5108859;28;20051;-29
2022/04/20 06:22:04;;;;;;;6.35;3.38;;;;;;;8.47;96.85;101936.97;5111556;28;20044;-34
2022/04/20 06:24:56;;;;;;;5.57;3.60;;;;;;;8.56;96.38;101935.41;5078597;28;20058;-28
2022/04/20 06:27:34;;;;;;;7.68;4.07;;;;;;;8.66;95.43;101936.63;5112877;28;20458;-29
2022/04/20 06:30:26;;;;;;;6.43;3.53;;;;;;;8.77;95.33;101941.22;5111507;28;20039;-29
2022/04/20 06:32:59;;;;;;;5.68;3.10;;;;;;;8.87;93.96;101936.59;5102090;28;20046;-28
2022/04/20 06:35:47;;;;;;;5.45;3.40;;;;;;;8.97;93.96;101933.94;5094161;27;20048;-31
2022/04/20 06:38:28;;;;;;;5.95;3.72;;;;;;;9.16;93.15;101934.41;5111965;28;20473;-28
2022/04/20 06:41:21;;;;;;;4.70;3.05;;;;;;;9.48;92.15;101930.78;5101628;28;20143;-29
2022/04/20 06:44:04;;;;;;;4.55;3.17;;;;;;;9.91;90.89;101941.72;5112895;28;20039;-29
2022/04/20 06:46:47;;;;;;;5.15;2.90;;;;;;;10.47;86.93;101930.91;5111240;28;20508;-28
2022/04/20 06:49:16;;;;;;;4.95;3.33;;;;;;;10.98;83.78;101937.50;5111994;27;20040;-28
2022/04/20 07:00:41;;;;;;;4.60;2.60;;;;;;;13.70;71.27;101940.88;5094323;28;20052;-29
2022/04/20 07:03:24;;;;;;;5.32;2.90;;;;;;;14.44;68.20;101943.22;5112153;28;20051;-29
2022/04/20 07:05:52;;;;;;;5.63;2.80;;;;;;;15.06;65.28;101944.09;5113861;27;20052;-29
2022/04/20 07:08:29;;;;;;;7.22;3.00;;;;;;;15.88;64.15;101938.03;5113138;28;20071;-31
2022/04/20 07:11:05;;;;;;;5.97;3.08;;;;;;;16.53;57.79;101932.28;5114070;28;20105;-29
2022/04/20 07:13:35;;;;;;;6.70;3.00;;;;;;;16.94;55.75;101942.72;5112319;28;20075;-29
2022/04/20 07:16:03;;;;;;;3.58;2.50;;;;;;;17.17;52.26;101931.19;5112959;28;20154;-30
2022/04/20 07:18:34;;;;;;;4.70;2.83;;;;;;;17.54;52.51;101924.34;5110845;28;20510;-29
2022/04/20 07:21:03;;;;;;;5.95;2.55;;;;;;;18.10;50.52;101924.91;5113370;28;20048;-29
2022/04/20 07:23:47;;;;;;;3.47;2.42;;;;;;;18.63;48.11;101924.81;5110238;28;20044;-29
2022/04/20 07:26:33;;;;;;;3.47;2.53;;;;;;;19.06;47.96;101938.22;5113539;28;20104;-29
2022/04/20 07:29:09;;;;;;;4.63;2.80;;;;;;;19.66;46.84;101937.44;5111141;28;20069;-31
2022/04/20 07:31:57;;;;;;;4.05;2.50;;;;;;;20.37;45.32;101941.50;5101950;28;20722;-30
2022/04/20 07:34:43;;;;;;;3.45;2.42;;;;;;;21.00;43.48;101931.13;5110863;28;20526;-29
2022/04/20 07:37:29;;;;;;;4.38;2.92;;;;;;;21.41;41.67;101941.69;5112611;28;20055;-31
2022/04/20 07:40:15;;;;;;;6.07;2.55;;;;;;;21.68;41.04;101940.31;5103087;28;20165;-29
2022/04/20 07:43:03;;;;;;;4.78;2.50;;;;;;;21.78;39.81;101936.22;5113024;28;20047;-30
2022/04/20 07:46:12;;;;;;;3.53;2.13;;;;;;;21.57;39.65;101934.22;5098034;28;20047;-29
2022/04/20 07:50:18;;;;;;;3.38;2.13;;;;;;;21.74;38.83;101938.09;5111767;28;20062;-30
2022/04/20 07:52:18;;;;;;;3.90;2.50;;;;;;;21.61;37.93;101935.19;5107440;28;20436;-29
2022/04/20 07:55:08;;;;;;;3.00;1.92;;;;;;;21.54;38.66;101940.59;5112136;28;20557;-31
2022/04/20 07:57:49;;;;;;;3.75;2.08;;;;;;;21.67;38.69;101950.00;5111973;28;20058;-33
2022/04/20 08:00:37;;;;;;;4.60;2.28;;;;;;;21.93;37.86;101955.44;5109920;28;20463;-30
2022/04/20 08:03:25;;;;;;;4.68;2.10;;;;;;;22.24;38.04;101960.66;5112756;28;20054;-30
2022/04/20 08:05:55;;;;;;;4.45;2.67;;;;;;;22.18;36.87;101960.03;5110642;28;20058;-35
2022/04/20 08:08:26;;;;;;;3.63;2.20;;;;;;;22.31;37.02;101970.28;5107915;28;20051;-35
2022/04/20 08:10:58;;;;;;;3.72;2.28;;;;;;;22.63;36.75;101967.69;5111158;28;20040;-33
2022/04/20 08:16:21;;;;;;;4.05;2.35;;;;;;;22.42;36.31;101967.78;5111451;28;20078;-34
2022/04/20 08:19:09;;;;;;;5.07;1.98;;;;;;;22.85;36.26;101978.66;5110903;28;20051;-34
2022/04/20 08:21:52;;;;;;;3.33;1.98;;;;;;;23.44;35.39;101977.28;5111292;28;20055;-31
2022/04/20 08:24:19;;;;;;;3.78;2.30;;;;;;;23.47;33.94;101977.38;5112161;28;20052;-31
2022/04/20 08:26:47;;;;;;;4.03;2.13;;;;;;;23.35;34.97;101972.56;5111265;28;20056;-30
2022/04/20 08:29:15;;;;;;;2.65;1.65;;;;;;;23.70;34.60;101967.16;5112176;28;20054;-29
2022/04/20 08:31:43;;;;;;;3.22;2.00;;;;;;;23.90;33.51;101978.72;5111808;28;20044;-28
2022/04/20 08:34:12;;;;;;;5.75;2.40;;;;;;;24.07;33.76;101975.53;5109988;28;20043;-30
2022/04/20 08:36:40;;;;;;;3.40;2.10;;;;;;;24.36;32.89;101983.72;5112309;28;20051;-31
2022/04/20 08:39:07;;;;;;;3.88;2.08;;;;;;;24.35;33.41;101984.09;5111902;28;20126;-34
2022/04/20 08:41:36;;;;;;;4.43;2.20;;;;;;;24.50;32.97;101988.97;5110031;28;20074;-33
2022/04/20 08:44:06;;;;;;;3.33;1.73;;;;;;;24.58;32.25;101987.16;5111607;27;20043;-33
2022/04/20 08:46:40;;;;;;;5.15;2.10;;;;;;;24.47;33.06;101992.56;5111349;28;20050;-36
2022/04/20 08:49:08;;;;;;;5.07;2.10;;;;;;;24.75;32.16;101986.78;5112090;28;20050;-29
2022/04/20 08:54:20;;;;;;;4.15;2.20;;;;;;;24.99;31.61;101977.19;5110688;28;20052;-33
2022/04/20 08:59:36;;;;;;;3.58;2.13;;;;;;;25.05;30.66;101976.53;5111568;28;20044;-37
2022/04/20 09:02:04;;;;;;;3.67;2.00;;;;;;;24.99;30.41;101968.63;5110986;28;20469;-30
2022/04/20 09:04:32;;;;;;;3.13;1.80;;;;;;;24.92;29.63;101974.16;5111642;28;20112;-30
2022/04/20 09:07:03;;;;;;;2.90;1.60;;;;;;;24.78;29.64;101968.88;5111405;28;20044;-36
2022/04/20 09:09:31;;;;;;;4.07;1.73;;;;;;;24.43;29.77;101967.97;5110698;28;20511;-36
2022/04/20 09:11:59;;;;;;;2.83;1.52;;;;;;;23.85;29.73;101971.22;5111068;28;20051;-31
2022/04/20 09:14:29;;;;;;;2.80;1.70;;;;;;;23.68;30.16;101977.25;5111146;28;20118;-28
2022/04/20 09:17:01;;;;;;;2.88;1.60;;;;;;;23.98;30.55;101964.28;5109330;28;20058;-31
2022/04/20 09:19:30;;;;;;;2.80;1.90;;;;;;;24.31;29.95;101966.03;5111365;28;20055;-29
2022/04/20 09:21:57;;;;;;;3.03;1.45;;;;;;;24.10;30.06;101965.41;5110385;28;20044;-28
2022/04/20 09:24:26;;;;;;;2.80;1.90;;;;;;;24.42;29.60;101972.03;5111360;28;20039;-32
2022/04/20 09:26:56;;;;;;;3.83;2.03;;;;;;;24.63;29.25;101972.59;5110148;28;20052;-29
2022/04/20 09:29:25;;;;;;;2.80;1.58;;;;;;;24.35;28.38;101969.81;5109893;28;20086;-32
2022/04/20 09:31:54;;;;;;;3.47;2.00;;;;;;;23.58;28.09;101969.22;5111077;28;20074;-34
2022/04/20 09:34:35;;;;;;;3.50;2.00;;;;;;;22.93;28.98;101960.63;5110846;28;20044;-34
2022/04/20 09:37:12;;;;;;;2.45;1.52;;;;;;;23.16;29.59;101965.84;5101435;28;20040;-29
2022/04/20 09:39:45;;;;;;;4.38;1.80;;;;;;;23.59;29.53;101957.44;5111044;28;20047;-32
2022/04/20 09:42:13;;;;;;;3.05;1.85;;;;;;;24.04;29.38;101956.28;5111274;28;20044;-33
2022/04/20 09:44:53;;;;;;;2.50;1.63;;;;;;;23.89;26.25;101957.09;5110136;28;20200;-29
2022/04/20 09:50:08;;;;;;;2.20;1.60;;;;;;;23.74;29.62;101953.00;5110622;28;20040;-33
2022/04/20 09:52:37;;;;;;;2.80;1.83;;;;;;;24.24;29.36;101955.25;5110220;28;20048;-34
2022/04/20 09:55:08;;;;;;;2.83;2.08;;;;;;;24.57;28.16;101952.06;5111113;28;20043;-33
2022/04/20 09:57:37;;;;;;;4.37;2.33;;;;;;;24.58;27.89;101948.00;5102775;28;20055;-30
2022/04/20 10:00:10;;;;;;;3.22;1.98;;;;;;;24.56;27.73;101941.03;5114829;28;20051;-30
2022/04/20 10:02:47;;;;;;;2.70;1.65;;;;;;;24.51;27.95;101949.84;5104297;28;20065;-29
2022/04/20 10:05:16;;;;;;;3.00;1.60;;;;;;;24.28;28.17;101941.91;5114244;28;20051;-29
2022/04/20 10:07:51;;;;;;;3.13;1.70;;;;;;;24.26;28.39;101941.47;5114937;27;20044;-35
2022/04/20 10:10:20;;;;;;;3.03;1.70;;;;;;;24.43;27.63;101937.41;5113714;28;20120;-31
2022/04/20 10:12:54;;;;;;;4.20;1.50;;;;;;;24.54;28.48;101941.38;5114041;28;20051;-30
2022/04/20 10:18:17;;;;;;;2.63;1.73;;;;;;;24.81;27.49;101933.88;5113313;28;20074;-32
2022/04/20 10:20:50;;;;;;;2.55;1.70;;;;;;;24.60;27.26;101928.47;5114988;28;20389;-31
2022/04/20 10:23:20;;;;;;;2.10;1.50;;;;;;;24.14;27.84;101932.13;5114620;28;20541;-30
2022/04/20 10:25:52;;;;;;;3.78;1.60;;;;;;;24.14;28.13;101932.97;5113978;28;20048;-37
2022/04/20 10:28:28;;;;;;;3.10;1.35;;;;;;;24.45;28.67;101923.63;5114616;28;20047;-28
2022/04/20 10:31:04;;;;;;;2.58;1.33;;;;;;;24.79;28.47;101924.88;5104607;28;20047;-26
2022/04/20 10:33:36;;;;;;;2.38;1.27;;;;;;;24.86;29.35;101918.50;5112611;28;20078;-27
2022/04/20 10:36:17;;;;;;;1.73;1.10;;;;;;;25.05;29.50;101922.28;5104417;28;20044;-28
2022/04/20 10:39:19;;;;;;;2.65;1.58;;;;;;;24.93;24.50;101925.22;5112870;28;20047;-27
2022/04/20 10:42:21;;;;;;;3.33;1.63;;;;;;;24.74;28.10;101922.31;5113177;28;20389;-28
2022/04/20 10:45:07;;;;;;;2.25;1.20;;;;;;;24.82;28.26;101926.16;5114062;28;20090;-29
2022/04/20 10:47:36;;;;;;;4.30;1.77;;;;;;;24.81;26.80;101927.34;5113697;28;20047;-29
2022/04/20 10:50:19;;;;;;;3.60;1.55;;;;;;;24.72;26.43;101924.72;5113599;28;20039;-29
2022/04/20 10:52:50;;;;;;;3.05;1.60;;;;;;;24.71;26.66;101923.06;5114166;28;20400;-29
2022/04/20 10:55:18;;;;;;;3.00;2.10;;;;;;;24.70;26.17;101918.53;5111948;28;20051;-34
2022/04/20 10:57:48;;;;;;;2.83;1.73;;;;;;;24.74;26.54;101925.16;5114004;28;20050;-28
2022/04/20 11:00:28;;;;;;;2.40;1.73;;;;;;;24.77;24.91;101924.44;5113241;28;20078;-30
2022/04/20 11:02:56;;;;;;;3.03;1.50;;;;;;;24.81;26.25;101922.47;5114057;27;20090;-31
2022/04/20 11:05:25;;;;;;;2.63;1.30;;;;;;;24.83;26.54;101925.78;5114117;28;20047;-33
2022/04/20 11:08:07;;;;;;;2.85;1.60;;;;;;;24.90;26.21;101920.25;5112347;27;20035;-28
2022/04/20 11:10:35;;;;;;;3.97;1.80;;;;;;;24.65;25.84;101913.09;5113679;27;20488;-29
2022/04/20 11:19:12;;;;;;;2.45;1.67;;;;;;;24.38;26.66;101900.59;5050677;28;20224;-32
2022/04/20 11:22:07;;;;;;;3.10;1.58;;;;;;;24.49;25.83;101893.16;5109229;28;20089;-32
2022/04/20 11:24:42;;;;;;;2.25;1.40;;;;;;;24.47;25.93;101889.84;5113817;28;20400;-27
2022/04/20 11:27:10;;;;;;;3.88;1.75;;;;;;;24.55;26.08;101891.69;5113565;28;20071;-28
2022/04/20 11:29:43;;;;;;;3.10;1.80;;;;;;;24.44;25.57;101892.59;5112627;28;20055;-29
2022/04/20 11:32:14;;;;;;;2.97;1.58;;;;;;;24.04;26.14;101890.69;5113395;28;20063;-28
2022/04/20 11:35:06;;;;;;;2.60;1.92;;;;;;;23.68;24.41;101886.88;5112200;28;20051;-25
2022/04/20 11:37:34;;;;;;;2.97;1.73;;;;;;;23.45;26.30;101880.06;5112851;28;20054;-29
2022/04/20 11:40:11;;;;;;;2.53;1.50;;;;;;;23.34;26.36;101885.44;5111911;28;20051;-28
2022/04/20 11:42:39;;;;;;;2.00;1.50;;;;;;;23.35;26.70;101889.97;5111722;28;20126;-28
2022/04/20 11:45:09;;;;;;;2.40;1.33;;;;;;;23.51;26.63;101889.19;5112813;28;20051;-29
2022/04/20 11:47:42;;;;;;;3.42;1.75;;;;;;;23.64;25.90;101885.09;5111793;28;20056;-30
2022/04/20 11:50:25;;;;;;;2.13;1.40;;;;;;;23.39;25.73;101881.50;5110916;28;20105;-35
2022/04/20 11:53:02;;;;;;;3.05;1.85;;;;;;;23.29;25.75;101870.63;5111372;28;20106;-29
2022/04/20 11:55:54;;;;;;;3.50;1.50;;;;;;;23.22;27.90;101879.78;5111743;28;20131;-33
2022/04/20 11:58:22;;;;;;;2.30;1.30;;;;;;;23.53;28.10;101873.41;5112256;28;20052;-28
2022/04/20 12:01:03;;;;;;;2.20;1.30;;;;;;;23.73;26.45;101877.22;5112237;28;20044;-32
2022/04/20 12:03:32;;;;;;;3.05;1.15;;;;;;;23.85;28.41;101873.47;5109204;28;20079;-27
2022/04/20 12:06:05;;;;;;;1.83;1.20;;;;;;;23.91;27.13;101861.44;5112181;28;20047;-28
2022/04/20 12:08:33;;;;;;;1.90;1.20;;;;;;;23.77;26.87;101857.38;5112112;28;20500;-29
2022/04/20 12:11:06;;;;;;;3.45;1.85;;;;;;;23.56;26.16;101852.75;5112067;28;20043;-31
2022/04/20 12:13:35;;;;;;;2.90;1.60;;;;;;;23.39;26.63;101853.00;5112636;28;20063;-37
2022/04/20 12:16:06;;;;;;;3.53;1.88;;;;;;;23.35;26.82;101843.56;5112312;28;20382;-29
2022/04/20 12:18:36;;;;;;;2.45;1.20;;;;;;;23.30;27.51;101838.94;5109386;28;20050;-36
2022/04/20 12:21:07;;;;;;;3.58;1.42;;;;;;;23.21;27.08;101834.56;5109953;28;20073;-34
2022/04/20 12:23:36;;;;;;;2.90;1.65;;;;;;;23.16;27.43;101840.53;5112160;28;20079;-32
2022/04/20 12:26:05;;;;;;;2.97;1.50;;;;;;;23.25;27.25;101833.50;5111247;28;20051;-30
2022/04/20 12:28:38;;;;;;;2.90;1.55;;;;;;;23.45;27.18;101837.31;5111814;28;20048;-30
2022/04/20 12:31:08;;;;;;;3.08;1.50;;;;;;;23.47;26.88;101834.09;5112132;28;20047;-33
2022/04/20 12:33:37;;;;;;;2.95;1.35;;;;;;;23.43;27.28;101841.72;5110984;28;20055;-35
2022/04/20 12:36:15;;;;;;;2.60;1.52;;;;;;;23.35;27.59;101832.97;5110489;28;20508;-39
2022/04/20 12:38:58;;;;;;;2.42;1.25;;;;;;;23.21;27.18;101826.03;5109553;28;20043;-29